createdAt,value
2024-02-29T00:00:27.671Z,20.02
2024-02-29T00:02:54.730Z,20.08
2024-02-29T00:05:22.151Z,17.27
2024-02-29T00:07:49.301Z,17.48
2024-02-29T00:10:16.518Z,16.48
2024-02-29T00:12:43.964Z,19.65
2024-02-29T00:15:12.346Z,16.80
2024-02-29T00:17:39.568Z,17.83
2024-02-29T00:20:10.258Z,18.70
2024-02-29T00:22:37.746Z,20.83
2024-02-29T00:25:05.468Z,16.30
2024-02-29T00:27:32.789Z,19.63
2024-02-29T00:29:59.938Z,16.75
2024-02-29T00:32:27.488Z,17.38
2024-02-29T00:34:54.805Z,17.83
2024-02-29T00:37:22.114Z,17.85
2024-02-29T00:39:49.353Z,21.48
2024-02-29T00:42:16.656Z,20.52
2024-02-29T00:44:43.777Z,19.90
2024-02-29T00:47:13.281Z,18.50
2024-02-29T00:49:40.912Z,18.17
2024-02-29T00:52:08.252Z,17.83
2024-02-29T00:54:35.892Z,19.13
2024-02-29T00:57:04.022Z,20.73
2024-02-29T00:59:31.128Z,18.13
2024-02-29T01:01:58.226Z,18.10
2024-02-29T01:04:25.397Z,18.83
2024-02-29T01:06:52.533Z,13.40
2024-02-29T01:09:21.511Z,15.60
2024-02-29T01:11:49.721Z,15.43
2024-02-29T01:14:16.762Z,16.80
2024-02-29T01:16:43.817Z,15.93
2024-02-29T01:19:10.945Z,14.30
2024-02-29T01:21:40.137Z,13.43
2024-02-29T01:24:07.365Z,17.00
2024-02-29T01:26:35.169Z,13.27
2024-02-29T01:29:02.317Z,15.45
2024-02-29T01:31:29.829Z,15.10
2024-02-29T01:33:56.961Z,13.35
2024-02-29T01:36:23.997Z,10.27
2024-02-29T01:38:50.962Z,14.40
2024-02-29T01:41:19.706Z,11.77
2024-02-29T01:43:54.877Z,19.05
2024-02-29T01:46:22.325Z,13.07
2024-02-29T01:48:49.521Z,14.20
2024-02-29T01:51:19.354Z,17.17
2024-02-29T01:53:46.433Z,19.75
2024-02-29T01:56:16.605Z,15.32
2024-02-29T01:58:43.700Z,14.00
2024-02-29T02:01:10.858Z,14.00
2024-02-29T02:03:39.629Z,14.13
2024-02-29T02:06:06.706Z,14.57
2024-02-29T02:08:33.849Z,14.68
2024-02-29T02:11:01.457Z,15.05
2024-02-29T02:13:28.461Z,12.30
2024-02-29T02:15:55.481Z,14.95
2024-02-29T02:18:22.797Z,13.70
2024-02-29T02:20:50.763Z,11.25
2024-02-29T02:23:17.768Z,13.38
2024-02-29T02:25:44.791Z,12.85
2024-02-29T02:28:13.174Z,18.35
2024-02-29T02:30:40.963Z,10.57
2024-02-29T02:33:08.858Z,14.27
2024-02-29T02:35:35.890Z,15.68
2024-02-29T02:38:06.968Z,12.52
2024-02-29T02:40:35.878Z,14.48
2024-02-29T02:43:03.552Z,14.50
2024-02-29T02:45:30.680Z,32.30
2024-02-29T02:47:57.695Z,14.30
2024-02-29T02:50:26.030Z,23.55
2024-02-29T02:52:53.049Z,16.48
2024-02-29T02:55:20.164Z,24.85
2024-02-29T02:57:47.190Z,16.58
2024-02-29T03:00:14.402Z,17.05
2024-02-29T03:02:41.537Z,13.68
2024-02-29T03:05:10.342Z,15.45
2024-02-29T03:07:39.653Z,17.55
2024-02-29T03:10:10.395Z,14.82
2024-02-29T03:12:38.988Z,22.17
2024-02-29T03:15:06.999Z,16.30
2024-02-29T03:17:34.007Z,14.07
2024-02-29T03:20:01.425Z,16.92
2024-02-29T03:22:28.397Z,21.05
2024-02-29T03:24:57.158Z,18.45
2024-02-29T03:27:24.160Z,16.60
2024-02-29T03:29:51.842Z,15.75
2024-02-29T03:32:21.899Z,14.80
2024-02-29T03:34:48.937Z,17.08
2024-02-29T03:37:16.079Z,21.27
2024-02-29T03:39:43.614Z,17.75
2024-02-29T03:42:10.814Z,19.35
2024-02-29T03:44:37.865Z,21.27
2024-02-29T03:47:06.693Z,14.85
2024-02-29T03:49:33.671Z,19.83
2024-02-29T03:52:01.125Z,18.35
2024-02-29T03:54:28.410Z,15.20
2024-02-29T03:56:55.989Z,16.45
2024-02-29T03:59:22.970Z,17.20
2024-02-29T04:01:51.105Z,21.38
2024-02-29T04:04:21.409Z,19.42
2024-02-29T04:06:48.599Z,22.13
2024-02-29T04:09:15.732Z,23.65
2024-02-29T04:11:42.656Z,18.08
2024-02-29T04:14:10.451Z,21.75
2024-02-29T04:16:39.206Z,20.88
2024-02-29T04:19:07.081Z,18.83
2024-02-29T04:21:34.546Z,18.67
2024-02-29T04:24:04.880Z,18.45
2024-02-29T04:26:31.858Z,17.80
2024-02-29T04:28:58.834Z,22.60
2024-02-29T04:31:25.771Z,16.38
2024-02-29T04:33:53.185Z,18.77
2024-02-29T04:36:20.213Z,16.02
2024-02-29T04:38:47.416Z,20.42
2024-02-29T04:41:14.372Z,18.70
2024-02-29T04:43:41.421Z,22.77
2024-02-29T04:46:09.688Z,17.02
2024-02-29T04:48:36.900Z,23.80
2024-02-29T04:51:06.114Z,23.30
2024-02-29T04:53:33.294Z,19.08
2024-02-29T04:56:01.739Z,21.63
2024-02-29T04:58:29.136Z,19.42
2024-02-29T05:00:57.671Z,22.13
2024-02-29T05:03:25.124Z,21.63
2024-02-29T05:05:52.169Z,17.30
2024-02-29T05:08:19.502Z,24.17
2024-02-29T05:10:46.736Z,19.98
2024-02-29T05:13:13.959Z,20.35
2024-02-29T05:15:41.349Z,22.17
2024-02-29T05:18:08.932Z,19.65
2024-02-29T05:20:36.650Z,23.10
2024-02-29T05:23:04.122Z,24.08
2024-02-29T05:25:31.243Z,22.80
2024-02-29T05:27:58.650Z,25.45
2024-02-29T05:30:26.714Z,25.88
2024-02-29T05:32:56.365Z,24.48
2024-02-29T05:35:24.153Z,29.00
2024-02-29T05:37:51.282Z,27.05
2024-02-29T05:40:18.797Z,25.25
2024-02-29T05:42:46.047Z,20.58
2024-02-29T05:45:13.899Z,25.60
2024-02-29T05:47:41.185Z,28.50
2024-02-29T05:50:09.449Z,24.05
2024-02-29T05:52:38.057Z,26.35
2024-02-29T05:55:07.268Z,26.70
2024-02-29T05:57:35.905Z,24.55
2024-02-29T06:00:05.172Z,22.08
2024-02-29T06:02:38.529Z,24.95
2024-02-29T06:05:07.294Z,27.23
2024-02-29T06:07:35.497Z,26.40
2024-02-29T06:10:04.361Z,22.70
2024-02-29T06:12:31.876Z,28.40
2024-02-29T06:14:59.312Z,29.98
2024-02-29T06:17:26.593Z,24.02
2024-02-29T06:19:53.861Z,28.92
2024-02-29T06:22:24.106Z,32.88
2024-02-29T06:24:51.895Z,26.98
2024-02-29T06:27:22.511Z,25.98
2024-02-29T06:29:50.019Z,25.13
2024-02-29T06:32:17.572Z,31.13
2024-02-29T06:34:44.910Z,30.88
2024-02-29T06:37:13.019Z,33.10
2024-02-29T06:39:40.879Z,26.23
2024-02-29T06:42:08.187Z,30.63
2024-02-29T06:44:35.734Z,24.88
2024-02-29T06:47:03.288Z,27.50
2024-02-29T06:49:30.806Z,37.75
2024-02-29T06:51:58.656Z,27.92
2024-02-29T06:54:26.566Z,37.03
2024-02-29T06:56:54.073Z,26.98
2024-02-29T06:59:22.155Z,28.00
2024-02-29T07:01:49.741Z,30.15
2024-02-29T07:04:17.998Z,27.15
2024-02-29T07:06:45.722Z,29.30
2024-02-29T07:09:13.037Z,27.10
2024-02-29T07:11:42.032Z,24.88
2024-02-29T07:14:10.078Z,25.10
2024-02-29T07:16:39.999Z,32.40
2024-02-29T07:19:08.125Z,25.77
2024-02-29T07:21:39.068Z,27.00
2024-02-29T07:24:07.352Z,24.58
2024-02-29T07:26:41.629Z,23.98
2024-02-29T07:29:09.616Z,26.25
2024-02-29T07:31:43.063Z,24.10
2024-02-29T07:34:11.943Z,25.35
2024-02-29T07:36:39.398Z,20.23
2024-02-29T07:39:08.286Z,20.98
2024-02-29T07:41:36.139Z,20.45
2024-02-29T07:44:03.597Z,21.60
2024-02-29T07:46:31.065Z,21.23
2024-02-29T07:48:59.445Z,20.02
2024-02-29T07:51:29.723Z,20.40
2024-02-29T07:53:57.239Z,20.02
2024-02-29T07:56:27.008Z,18.20
2024-02-29T07:58:55.496Z,22.45
2024-02-29T08:01:22.715Z,17.73
2024-02-29T08:03:50.941Z,30.20
2024-02-29T08:06:18.327Z,19.20
2024-02-29T08:08:45.741Z,16.98
2024-02-29T08:11:13.118Z,17.95
2024-02-29T08:13:40.329Z,19.92
2024-02-29T08:16:07.979Z,18.60
2024-02-29T08:18:35.422Z,19.80
2024-02-29T08:21:05.536Z,22.10
2024-02-29T08:23:35.369Z,19.42
2024-02-29T08:26:11.605Z,23.70
2024-02-29T08:28:39.236Z,21.52
2024-02-29T08:31:07.905Z,19.38
2024-02-29T08:33:35.462Z,21.73
2024-02-29T08:36:05.013Z,22.30
2024-02-29T08:38:33.442Z,21.10
2024-02-29T08:41:03.347Z,17.27
2024-02-29T08:43:30.648Z,19.65
2024-02-29T08:45:58.123Z,15.55
2024-02-29T08:48:25.938Z,17.55
2024-02-29T08:51:16.719Z,16.15
2024-02-29T08:53:53.798Z,15.88
2024-02-29T08:56:21.433Z,18.02
2024-02-29T08:58:50.058Z,15.63
2024-02-29T09:01:17.935Z,15.77
2024-02-29T09:03:46.109Z,18.02
2024-02-29T09:06:18.223Z,19.17
2024-02-29T09:08:45.657Z,20.55
2024-02-29T09:11:12.872Z,15.30
2024-02-29T09:13:40.958Z,15.85
2024-02-29T09:16:09.587Z,17.30
2024-02-29T09:18:37.073Z,13.40
2024-02-29T09:21:04.735Z,16.63
2024-02-29T09:23:32.161Z,18.45
2024-02-29T09:25:59.591Z,15.90
2024-02-29T09:28:27.439Z,14.48
2024-02-29T09:30:55.173Z,18.08
2024-02-29T09:33:24.399Z,14.88
2024-02-29T09:35:58.571Z,17.63
2024-02-29T09:38:26.221Z,15.98
2024-02-29T09:43:23.846Z,15.32
2024-02-29T09:45:53.205Z,17.15
2024-02-29T09:48:20.907Z,18.33
2024-02-29T09:50:48.942Z,14.38
2024-02-29T09:53:17.187Z,14.40
2024-02-29T09:55:44.884Z,14.43
2024-02-29T09:58:19.103Z,14.77
2024-02-29T10:00:46.439Z,22.60
2024-02-29T10:03:20.194Z,15.77
2024-02-29T10:05:49.688Z,15.40
2024-02-29T10:08:17.195Z,13.40
2024-02-29T10:10:45.182Z,14.07
2024-02-29T10:13:12.550Z,15.43
2024-02-29T10:15:40.693Z,17.02
2024-02-29T10:18:09.401Z,14.20
2024-02-29T10:20:38.279Z,15.77
2024-02-29T10:23:13.217Z,15.73
2024-02-29T10:25:43.112Z,13.18
2024-02-29T10:28:16.101Z,13.38
2024-02-29T10:30:55.867Z,15.88
2024-02-29T10:33:23.987Z,16.60
2024-02-29T10:35:51.866Z,14.95
2024-02-29T10:38:19.706Z,13.82
2024-02-29T10:40:53.300Z,11.93
2024-02-29T10:43:24.552Z,13.10
2024-02-29T10:45:52.997Z,13.07
2024-02-29T10:48:40.501Z,15.52
2024-02-29T10:51:34.189Z,14.35
2024-02-29T10:54:10.799Z,16.05
2024-02-29T10:56:42.445Z,11.55
2024-02-29T10:59:13.940Z,12.88
2024-02-29T11:01:42.498Z,14.13
2024-02-29T11:04:10.317Z,15.30
2024-02-29T11:06:40.213Z,13.48
2024-02-29T11:09:11.586Z,14.90
2024-02-29T11:11:40.766Z,14.52
2024-02-29T11:14:11.000Z,16.60
2024-02-29T11:16:42.685Z,10.23
2024-02-29T11:19:15.506Z,14.38
2024-02-29T11:21:42.948Z,15.95
2024-02-29T11:24:17.798Z,15.20
2024-02-29T11:26:56.136Z,16.10
2024-02-29T11:29:24.201Z,12.70
2024-02-29T11:31:57.666Z,16.10
2024-02-29T11:34:25.766Z,11.18
2024-02-29T11:36:54.386Z,13.30
2024-02-29T11:39:25.456Z,12.70
2024-02-29T11:42:05.370Z,11.98
2024-02-29T11:44:33.381Z,16.20
2024-02-29T11:47:01.316Z,11.85
2024-02-29T11:49:29.185Z,13.57
2024-02-29T11:51:57.523Z,12.10
2024-02-29T11:54:27.050Z,12.52
2024-02-29T11:56:58.697Z,13.90
2024-02-29T11:59:27.432Z,12.40
2024-02-29T12:01:55.217Z,13.13
2024-02-29T12:04:23.302Z,16.35
2024-02-29T12:06:51.114Z,12.75
2024-02-29T12:09:18.568Z,15.43
2024-02-29T12:11:46.831Z,13.32
2024-02-29T12:14:14.528Z,14.73
2024-02-29T12:16:44.715Z,12.52
2024-02-29T12:19:15.876Z,14.13
2024-02-29T12:21:44.846Z,12.38
2024-02-29T12:24:12.558Z,15.95
2024-02-29T12:26:41.930Z,14.68
2024-02-29T12:29:10.275Z,16.40
2024-02-29T12:31:38.595Z,12.95
2024-02-29T12:34:06.666Z,15.05
2024-02-29T12:36:34.406Z,13.55
2024-02-29T12:39:02.770Z,13.02
2024-02-29T12:41:30.347Z,12.23
2024-02-29T12:44:01.486Z,14.77
2024-02-29T12:46:29.484Z,13.10
2024-02-29T12:48:57.694Z,13.55
2024-02-29T12:51:25.478Z,11.02
2024-02-29T12:53:54.904Z,13.82
2024-02-29T12:56:22.573Z,13.43
2024-02-29T12:58:50.343Z,14.15
2024-02-29T13:01:21.112Z,10.80
2024-02-29T13:03:48.740Z,15.38
2024-02-29T13:06:16.568Z,12.68
2024-02-29T13:08:45.427Z,12.43
2024-02-29T13:11:13.125Z,12.50
2024-02-29T13:13:40.797Z,10.38
2024-02-29T13:16:08.340Z,10.55
2024-02-29T13:18:35.693Z,11.32
2024-02-29T13:21:05.782Z,11.63
2024-02-29T13:23:33.604Z,11.85
2024-02-29T13:26:01.271Z,10.35
2024-02-29T13:28:28.828Z,14.57
2024-02-29T13:30:56.181Z,10.60
2024-02-29T13:33:23.733Z,9.85
2024-02-29T13:35:51.295Z,14.25
2024-02-29T13:38:18.666Z,10.85
2024-02-29T13:40:46.019Z,12.25
2024-02-29T13:43:13.338Z,9.50
2024-02-29T13:45:40.785Z,12.75
2024-02-29T13:48:08.493Z,12.82
2024-02-29T13:50:36.184Z,11.05
2024-02-29T13:53:03.432Z,17.48
2024-02-29T13:55:31.013Z,14.07
2024-02-29T13:57:58.851Z,12.48
2024-02-29T14:00:26.318Z,13.10
2024-02-29T14:02:59.592Z,11.52
2024-02-29T14:05:27.282Z,14.93
2024-02-29T14:07:54.995Z,15.05
2024-02-29T14:10:22.366Z,11.40
2024-02-29T14:12:49.977Z,12.00
2024-02-29T14:15:20.677Z,13.80
2024-02-29T14:17:48.238Z,38.28
2024-02-29T14:20:15.868Z,13.07
2024-02-29T14:22:43.174Z,10.18
2024-02-29T14:25:10.487Z,11.60
2024-02-29T14:27:38.737Z,10.85
2024-02-29T14:30:10.373Z,11.75
2024-02-29T14:32:39.482Z,15.50
2024-02-29T14:35:07.946Z,12.95
2024-02-29T14:37:35.856Z,11.52
2024-02-29T14:40:05.963Z,13.50
2024-02-29T14:42:34.496Z,13.43
2024-02-29T14:45:02.596Z,11.48
2024-02-29T14:47:30.696Z,10.80
2024-02-29T14:49:58.244Z,15.88
2024-02-29T14:52:28.295Z,15.07
2024-02-29T14:54:56.540Z,12.05
2024-02-29T14:57:23.829Z,14.55
2024-02-29T14:59:51.535Z,12.65
2024-02-29T15:02:19.639Z,15.32
2024-02-29T15:04:47.574Z,10.15
2024-02-29T15:07:15.617Z,13.13
2024-02-29T15:09:42.929Z,16.88
2024-02-29T15:12:10.274Z,17.67
2024-02-29T15:14:37.597Z,12.02
2024-02-29T15:17:05.742Z,17.45
2024-02-29T15:19:33.332Z,13.80
2024-02-29T15:22:00.738Z,13.63
2024-02-29T15:24:30.102Z,15.57
2024-02-29T15:27:00.638Z,15.98
2024-02-29T15:29:28.568Z,13.32
2024-02-29T15:31:56.525Z,13.90
2024-02-29T15:34:23.888Z,14.95
2024-02-29T15:36:51.568Z,13.25
2024-02-29T15:39:19.410Z,16.10
2024-02-29T15:41:46.692Z,16.30
2024-02-29T15:44:14.676Z,18.60
2024-02-29T15:46:45.678Z,15.90
2024-02-29T15:49:13.840Z,15.32
2024-02-29T15:51:41.092Z,13.25
2024-02-29T15:54:08.376Z,11.77
2024-02-29T15:56:35.937Z,14.10
2024-02-29T15:59:03.265Z,12.30
2024-02-29T16:01:31.124Z,15.88
2024-02-29T16:03:58.386Z,14.25
2024-02-29T16:06:26.666Z,14.85
2024-02-29T16:08:53.880Z,15.13
2024-02-29T16:11:23.085Z,18.75
2024-02-29T16:13:51.150Z,13.43
2024-02-29T16:16:18.808Z,18.35
2024-02-29T16:18:47.174Z,17.33
2024-02-29T16:21:15.074Z,17.27
2024-02-29T16:23:42.230Z,15.82
2024-02-29T16:26:09.304Z,17.17
2024-02-29T16:28:36.421Z,12.57
2024-02-29T16:31:05.066Z,14.80
2024-02-29T16:33:32.183Z,15.77
2024-02-29T16:35:59.221Z,15.02
2024-02-29T16:38:26.519Z,19.15
2024-02-29T16:40:55.938Z,12.25
2024-02-29T16:43:24.983Z,10.75
2024-02-29T16:45:52.364Z,14.48
2024-02-29T16:48:19.744Z,13.60
2024-02-29T16:50:49.088Z,14.52
2024-02-29T16:53:16.233Z,15.18
2024-02-29T16:55:43.299Z,13.15
2024-02-29T16:58:10.342Z,16.40
2024-02-29T17:00:38.385Z,14.45
2024-02-29T17:03:05.644Z,19.60
2024-02-29T17:05:33.534Z,16.80
2024-02-29T17:08:00.577Z,13.07
2024-02-29T17:10:28.484Z,12.32
2024-02-29T17:12:59.098Z,17.33
2024-02-29T17:15:26.925Z,12.82
2024-02-29T17:17:54.075Z,17.15
2024-02-29T17:20:21.262Z,15.48
2024-02-29T17:22:48.645Z,15.45
2024-02-29T17:25:16.120Z,13.00
2024-02-29T17:27:43.202Z,13.98
2024-02-29T17:30:12.958Z,13.65
2024-02-29T17:32:40.137Z,12.18
2024-02-29T17:35:07.680Z,15.00
2024-02-29T17:37:34.919Z,16.50
2024-02-29T17:40:02.125Z,12.95
2024-02-29T17:42:29.532Z,16.15
2024-02-29T17:44:56.586Z,17.60
2024-02-29T17:47:23.576Z,16.45
2024-02-29T17:49:50.595Z,17.60
2024-02-29T17:52:17.671Z,15.88
2024-02-29T17:54:44.717Z,17.85
2024-02-29T17:57:11.695Z,16.92
2024-02-29T17:59:40.143Z,13.73
2024-02-29T18:02:07.318Z,15.55
2024-02-29T18:04:34.487Z,15.90
2024-02-29T18:07:01.490Z,14.90
2024-02-29T18:09:28.566Z,17.95
2024-02-29T18:11:56.186Z,16.42
2024-02-29T18:14:23.439Z,17.70
2024-02-29T18:16:50.573Z,19.25
2024-02-29T18:19:18.689Z,13.85
2024-02-29T18:21:45.974Z,18.40
2024-02-29T18:24:13.089Z,17.75
2024-02-29T18:26:40.094Z,14.80
2024-02-29T18:29:07.094Z,17.35
2024-02-29T18:31:34.111Z,16.25
2024-02-29T18:34:01.158Z,21.15
2024-02-29T18:36:28.178Z,15.52
2024-02-29T18:38:56.116Z,17.40
2024-02-29T18:41:23.205Z,15.88
2024-02-29T18:43:50.209Z,16.60
2024-02-29T18:46:17.812Z,16.20
2024-02-29T18:48:45.007Z,15.80
2024-02-29T18:51:12.033Z,17.75
2024-02-29T18:53:39.074Z,15.75
2024-02-29T18:56:06.552Z,14.68
2024-02-29T18:58:33.624Z,14.65
2024-02-29T19:01:00.775Z,15.15
2024-02-29T19:03:28.074Z,17.05
2024-02-29T19:05:55.085Z,12.70
2024-02-29T19:08:23.323Z,19.95
2024-02-29T19:10:50.445Z,13.32
2024-02-29T19:13:18.095Z,12.90
2024-02-29T19:15:51.932Z,17.77
2024-02-29T19:18:19.690Z,14.50
2024-02-29T19:20:46.941Z,13.98
2024-02-29T19:23:13.998Z,12.13
2024-02-29T19:25:43.991Z,13.18
2024-02-29T19:28:11.084Z,16.33
2024-02-29T19:30:38.096Z,11.43
2024-02-29T19:33:05.437Z,14.57
2024-02-29T19:35:33.105Z,13.70
2024-02-29T19:38:00.126Z,12.30
2024-02-29T19:40:27.202Z,14.75
2024-02-29T19:42:54.566Z,11.25
2024-02-29T19:45:21.723Z,13.95
2024-02-29T19:47:49.000Z,11.82
2024-02-29T19:50:19.039Z,14.27
2024-02-29T19:52:46.112Z,13.05
2024-02-29T19:55:15.357Z,9.20
2024-02-29T19:57:42.700Z,12.32
2024-02-29T20:00:11.811Z,14.38
2024-02-29T20:02:41.780Z,20.42
2024-02-29T20:05:10.549Z,15.23
2024-02-29T20:07:37.600Z,11.55
2024-02-29T20:10:05.411Z,11.93
2024-02-29T20:12:32.458Z,17.25
2024-02-29T20:14:59.684Z,13.80
2024-02-29T20:17:26.663Z,11.35
2024-02-29T20:19:53.649Z,13.80
2024-02-29T20:22:20.686Z,11.73
2024-02-29T20:24:48.256Z,11.77
2024-02-29T20:27:15.256Z,12.73
2024-02-29T20:29:42.833Z,11.40
2024-02-29T20:32:13.685Z,11.00
2024-02-29T20:34:41.076Z,12.73
2024-02-29T20:37:08.180Z,12.80
2024-02-29T20:39:36.130Z,10.57
2024-02-29T20:42:03.211Z,10.48
2024-02-29T20:44:31.192Z,12.13
2024-02-29T20:46:58.367Z,14.25
2024-02-29T20:49:25.583Z,8.73
2024-02-29T20:51:54.599Z,10.43
2024-02-29T20:54:22.013Z,8.40
2024-02-29T20:56:48.989Z,16.08
2024-02-29T20:59:15.973Z,9.35
2024-02-29T21:01:43.297Z,10.07
2024-02-29T21:04:10.339Z,11.68
2024-02-29T21:06:37.308Z,9.85
2024-02-29T21:09:04.350Z,9.82
2024-02-29T21:11:31.401Z,10.00
2024-02-29T21:13:58.451Z,7.97
2024-02-29T21:16:25.450Z,10.10
2024-02-29T21:18:53.880Z,11.82
2024-02-29T21:21:20.897Z,9.00
2024-02-29T21:23:48.078Z,9.25
2024-02-29T21:26:15.081Z,9.70
2024-02-29T21:28:42.038Z,9.90
2024-02-29T21:31:10.990Z,8.70
2024-02-29T21:33:38.019Z,10.90
2024-02-29T21:36:05.767Z,8.00
2024-02-29T21:38:32.752Z,10.27
2024-02-29T21:41:02.170Z,8.00
2024-02-29T21:43:29.784Z,7.53
2024-02-29T21:45:56.876Z,8.27
2024-02-29T21:48:23.837Z,9.60
2024-02-29T21:50:50.937Z,12.85
2024-02-29T21:53:17.965Z,9.00
2024-02-29T21:55:45.466Z,10.20
2024-02-29T21:58:12.566Z,10.93
2024-02-29T22:00:39.660Z,8.43
2024-02-29T22:03:06.732Z,10.40
2024-02-29T22:05:33.737Z,11.65
2024-02-29T22:08:00.684Z,10.20
2024-02-29T22:10:27.734Z,8.25
2024-02-29T22:12:54.830Z,8.77
2024-02-29T22:15:21.785Z,8.05
2024-02-29T22:17:48.798Z,7.57
2024-02-29T22:20:16.597Z,8.38
2024-02-29T22:22:43.658Z,9.13
2024-02-29T22:25:10.769Z,10.27
2024-02-29T22:27:37.783Z,7.97
2024-02-29T22:30:07.861Z,10.90
2024-02-29T22:32:35.445Z,8.52
2024-02-29T22:35:04.125Z,9.63
2024-02-29T22:37:31.137Z,8.18
2024-02-29T22:39:58.233Z,13.07
2024-02-29T22:42:25.186Z,8.30
2024-02-29T22:44:53.768Z,8.57
2024-02-29T22:47:20.779Z,9.35
2024-02-29T22:49:47.844Z,9.50
2024-02-29T22:52:14.968Z,8.75
2024-02-29T22:54:41.938Z,5.63
2024-02-29T22:57:09.078Z,8.45
2024-02-29T22:59:36.030Z,6.43
2024-02-29T23:02:05.044Z,7.78
2024-02-29T23:04:32.220Z,7.45
2024-02-29T23:06:59.199Z,7.28
2024-02-29T23:09:26.104Z,9.13
2024-02-29T23:11:53.063Z,6.38
2024-02-29T23:14:19.994Z,4.88
2024-02-29T23:16:46.971Z,5.82
2024-02-29T23:19:13.933Z,6.80
2024-02-29T23:21:40.899Z,6.57
2024-02-29T23:24:08.059Z,5.47
2024-02-29T23:26:35.383Z,9.15
2024-02-29T23:29:02.844Z,6.72
2024-02-29T23:31:29.930Z,6.70
2024-02-29T23:33:56.988Z,7.35
2024-02-29T23:36:23.978Z,7.82
2024-02-29T23:38:50.992Z,5.55
2024-02-29T23:41:18.010Z,5.65
2024-02-29T23:43:45.249Z,6.78
2024-02-29T23:46:12.302Z,8.77
2024-02-29T23:48:39.487Z,7.68
2024-02-29T23:51:06.691Z,7.57
2024-02-29T23:53:33.621Z,4.63
2024-02-29T23:56:00.585Z,6.05
2024-02-29T23:58:27.893Z,9.18
